createdAt,value
2023-05-02T00:00:41.923Z,911.6020066889632
2023-05-02T00:07:03.927Z,905.4648829431438
2023-05-02T00:13:23.258Z,903.571906354515
2023-05-02T00:19:42.943Z,936.4080267558528
2023-05-02T00:28:58.029Z,951.85618729097
2023-05-02T00:35:18.003Z,952.2976588628762
2023-05-02T00:41:37.353Z,932.6521739130435
2023-05-02T00:47:57.431Z,912.9531772575251
2023-05-02T00:54:17.526Z,878.685618729097
2023-05-02T01:00:37.617Z,859.3612040133779
2023-05-02T01:13:53.233Z,805.0301003344482
2023-05-02T01:20:12.700Z,792.418060200669
2023-05-02T01:32:15.926Z,772.2374581939799
2023-05-02T01:38:35.791Z,690.5083612040133
2023-05-02T01:44:55.279Z,670.9598662207358
2023-05-02T01:51:15.020Z,611.5183946488295
2023-05-02T02:03:10.846Z,588.3344481605351
2023-05-02T02:09:31.784Z,428.32775919732444
2023-05-02T02:19:17.025Z,176.2809364548495
2023-05-02T02:25:36.158Z,151.58528428093646
2023-05-02T02:37:50.461Z,126.67558528428094
2023-05-02T02:44:10.210Z,119.18060200668896
2023-05-02T02:50:30.253Z,95.60535117056857
2023-05-02T02:56:50.345Z,124.876254180602
2023-05-02T03:03:10.393Z,141.4648829431438
2023-05-02T03:09:30.099Z,157.59866220735785
2023-05-02T03:16:49.621Z,146.96321070234114
2023-05-02T03:23:08.946Z,185.40802675585283
2023-05-02T03:29:28.024Z,191.85953177257525
2023-05-02T03:40:58.334Z,219.93979933110367
2023-05-02T03:48:22.420Z,213.09698996655518
2023-05-02T03:54:42.243Z,235.46822742474916
2023-05-02T04:01:03.489Z,244.8628762541806
2023-05-02T04:07:23.800Z,238.18060200668896
2023-05-02T04:13:43.877Z,246.7391304347826
2023-05-02T04:20:05.566Z,237.44481605351172
2023-05-02T04:26:28.302Z,260.60869565217394
2023-05-02T04:35:45.028Z,237.49498327759198
2023-05-02T04:42:07.277Z,222.33779264214047
2023-05-02T04:53:02.070Z,222.8227424749164
2023-05-02T05:03:46.216Z,238.44481605351172
2023-05-02T05:10:08.559Z,237.55852842809364
2023-05-02T05:16:30.820Z,234.36789297658862
2023-05-02T05:22:52.385Z,231.89297658862876
2023-05-02T05:29:14.939Z,243.1036789297659
2023-05-02T05:35:36.684Z,261.72909698996654
2023-05-02T05:42:00.887Z,216.81939799331104
2023-05-02T05:48:24.598Z,198.1103678929766
2023-05-02T05:54:48.455Z,196.64882943143812
2023-05-02T06:02:32.323Z,211.79598662207357
2023-05-02T06:08:55.967Z,195.62541806020067
2023-05-02T06:28:27.774Z,181.7056856187291
2023-05-02T06:34:51.911Z,167.4715719063545
2023-05-02T06:41:17.298Z,180.91638795986623
2023-05-02T06:47:42.237Z,174.04347826086956
2023-05-02T06:54:05.352Z,160.7458193979933
2023-05-02T07:00:30.121Z,194.1438127090301
2023-05-02T07:06:51.515Z,198.6722408026756
2023-05-02T07:13:53.815Z,207.09030100334448
2023-05-02T07:20:15.287Z,211.0066889632107
2023-05-02T07:26:38.863Z,217.1371237458194
2023-05-02T07:33:00.984Z,222.35117056856188
2023-05-02T07:44:06.917Z,206.08361204013377
2023-05-02T07:50:28.909Z,202.18729096989966
2023-05-02T07:56:50.778Z,227.74916387959865
2023-05-02T08:08:09.397Z,196.63210702341138
2023-05-02T08:14:30.899Z,204.26421404682273
2023-05-02T08:20:52.171Z,192.7591973244147
2023-05-02T08:32:17.741Z,213.21070234113714
2023-05-02T08:38:39.185Z,218.40133779264215
2023-05-02T08:45:01.383Z,232.1036789297659
2023-05-02T09:01:20.831Z,179.11371237458195
2023-05-02T09:07:41.703Z,179.04347826086956
2023-05-02T09:14:03.699Z,186.58528428093646
2023-05-02T09:20:25.744Z,181.7190635451505
2023-05-02T09:26:46.543Z,165.41471571906354
2023-05-02T09:33:06.794Z,180.31772575250835
2023-05-02T09:39:26.613Z,207.36120401337791
2023-05-02T09:55:54.854Z,142.7859531772575
2023-05-02T10:02:15.008Z,200.79933110367892
2023-05-02T10:08:34.491Z,248.0334448160535
2023-05-02T10:14:54.073Z,112.54180602006689
2023-05-02T10:21:16.381Z,135.6086956521739
2023-05-02T10:27:36.069Z,156.24414715719064
2023-05-02T10:33:56.142Z,179.18060200668896
2023-05-02T10:40:16.349Z,136.57190635451505
2023-05-02T11:12:31.259Z,99.05685618729098
2023-05-02T11:23:13.235Z,108.50501672240803
2023-05-02T11:29:35.063Z,103.89632107023411
2023-05-02T11:35:57.362Z,109.56521739130434
2023-05-02T11:42:19.317Z,112.9799331103679
2023-05-02T11:48:40.818Z,189.7859531772575
2023-05-02T11:58:25.371Z,125.9933110367893
2023-05-02T12:04:45.473Z,126.94648829431438
2023-05-02T12:20:35.498Z,151.50501672240802
2023-05-02T12:32:39.925Z,149.37792642140468
2023-05-02T12:44:56.983Z,119.8695652173913
2023-05-02T12:51:17.777Z,112.65551839464882
2023-05-02T12:57:37.734Z,121.96321070234114
2023-05-02T13:03:57.995Z,125.62876254180603
2023-05-02T13:10:18.520Z,95.17056856187291
2023-05-02T13:19:26.641Z,251.1505016722408
2023-05-02T13:25:46.852Z,196.1571906354515
2023-05-02T13:34:26.844Z,499.933110367893
2023-05-02T13:40:47.009Z,131.3913043478261
2023-05-02T13:47:06.733Z,141.83612040133778
2023-05-02T13:55:05.738Z,222.87625418060202
2023-05-02T14:01:26.072Z,141.91973244147158
2023-05-02T14:07:46.714Z,169.20735785953178
2023-05-02T14:14:07.532Z,198.30434782608697
2023-05-02T14:20:29.625Z,267.1505016722408
2023-05-02T14:26:51.725Z,136.36120401337791
2023-05-02T14:33:13.544Z,165.06354515050168
2023-05-02T14:39:55.128Z,156.2876254180602
2023-05-02T14:46:15.911Z,152.05685618729098
2023-05-02T14:52:36.027Z,120.06354515050167
2023-05-02T14:58:57.066Z,143.59197324414717
2023-05-02T15:05:18.069Z,115.07023411371237
2023-05-02T15:11:37.927Z,179.97993311036788
2023-05-02T15:17:58.653Z,146.0401337792642
2023-05-02T15:24:19.515Z,118.63210702341136
2023-05-02T15:36:18.988Z,113.04013377926421
2023-05-02T15:42:39.811Z,126.7123745819398
2023-05-02T15:48:59.719Z,105.68896321070234
2023-05-02T15:55:19.763Z,124.45819397993311
2023-05-02T16:01:40.910Z,132.1705685618729
2023-05-02T16:14:11.514Z,135.98996655518394
2023-05-02T16:25:59.754Z,229.28428093645485
2023-05-02T16:32:30.855Z,176.82608695652175
2023-05-02T16:39:51.082Z,154.99665551839465
2023-05-02T16:46:13.176Z,208.69565217391303
2023-05-02T16:52:34.451Z,126.96321070234114
2023-05-02T16:58:55.683Z,154.80936454849498
2023-05-02T17:06:36.199Z,186.1571906354515
2023-05-02T17:13:01.089Z,193.50836120401337
2023-05-02T17:23:23.994Z,173.7257525083612
2023-05-02T17:29:53.229Z,140.59197324414717
2023-05-02T17:36:18.743Z,108.59197324414716
2023-05-02T17:42:42.326Z,114.09030100334448
2023-05-02T17:49:05.829Z,117.06020066889631
2023-05-02T17:55:51.753Z,123.93311036789298
2023-05-02T18:02:22.004Z,115.85284280936455
2023-05-02T18:08:44.428Z,135.51839464882943
2023-05-02T18:15:07.572Z,120.93979933110369
2023-05-02T18:25:23.360Z,136.5953177257525
2023-05-02T18:37:08.629Z,125.4314381270903
2023-05-02T18:47:19.175Z,130.61204013377926
2023-05-02T18:56:21.129Z,121.6923076923077
2023-05-02T19:02:42.412Z,140.02341137123747
2023-05-02T19:09:04.676Z,140.9297658862876
2023-05-02T19:15:29.077Z,170.37458193979933
2023-05-02T19:23:40.685Z,135.81270903010034
2023-05-02T19:30:02.068Z,146.50501672240802
2023-05-02T19:36:30.769Z,161.04347826086956
2023-05-02T19:42:55.747Z,195.13377926421404
2023-05-02T19:53:23.310Z,203.12374581939798
2023-05-02T19:59:43.640Z,217.02006688963212
2023-05-02T20:10:27.716Z,179.05016722408027
2023-05-02T20:21:08.723Z,168.51839464882943
2023-05-02T20:27:38.599Z,195.08026755852842
2023-05-02T20:34:00.324Z,162.50501672240802
2023-05-02T20:45:31.711Z,149.1705685618729
2023-05-02T20:51:52.832Z,182.8428093645485
2023-05-02T20:58:14.483Z,182.5953177257525
2023-05-02T21:04:35.216Z,185.73578595317727
2023-05-02T21:13:38.606Z,150.93645484949832
2023-05-02T21:20:03.430Z,149.69899665551839
2023-05-02T21:26:25.005Z,152.87625418060202
2023-05-02T21:36:37.805Z,146.46153846153845
2023-05-02T21:42:56.240Z,141.85953177257525
2023-05-02T21:49:18.046Z,164.96321070234114
2023-05-02T21:55:42.569Z,170.11371237458195
2023-05-02T22:02:12.407Z,179.76254180602007
2023-05-02T22:10:50.866Z,197.76923076923077
2023-05-02T22:17:14.500Z,222.20735785953178
2023-05-02T22:23:39.270Z,210.92307692307693
2023-05-02T22:30:01.606Z,219.52508361204013
2023-05-02T22:36:22.827Z,219.74916387959865
2023-05-02T22:42:43.938Z,211.57190635451505
2023-05-02T22:49:03.805Z,222.37123745819397
2023-05-02T22:55:24.985Z,245.438127090301
2023-05-02T23:01:45.393Z,237.66220735785953
2023-05-02T23:08:05.020Z,236.12374581939798
2023-05-02T23:24:29.779Z,198.4314381270903
2023-05-02T23:30:49.108Z,205.89966555183946
2023-05-02T23:37:09.478Z,203.29765886287626
2023-05-02T23:43:29.573Z,186.30769230769232
2023-05-02T23:55:59.375Z,182.09364548494983
